Bailey, MI (49303)

6:46 AM EDT on October 01, 2016 (GMT -0400)
Indian Lakes Road | | Change Station

Elev 784 ft 43.20 °N, 85.71 °W | Updated 1 minute ago

Overcast
Overcast
57.6 °F
Feels Like 57.6 °F
N
1.9
Wind Variable Wind from North
Gusts 3.7 mph

Today
High -- | Low -- °F
--% Chance of Precip.
Yesterday
High -- | Low -- °F
Precip. -- in
Pressure 30.08 in
Visibility 10.0 miles
Clouds Overcast 600 ft
Dew Point 56 °F
Humidity 95%
Rainfall 0.00 in
Snow Depth Not available.
7:41 AM 7:23 PM
New Moon, 0% visible
METAR KFFX 011014Z AUTO 04005KT 10SM OVC006 14/13 A3008 RMK AO2 T01350130
Pressure 30.08 in
Visibility 10.0 miles
Clouds Overcast 600 ft
Dew Point 56 °F
Humidity 95%
Rainfall 0.00 in
Snow Depth Not available.
7:41 AM 7:23 PM
New Moon, 0% visible
METAR KFFX 011014Z AUTO 04005KT 10SM OVC006 14/13 A3008 RMK AO2 T01350130

10-Day Weather Forecast

Almanac

Astronomy

Oct. 01, 2016 Rise Set
Actual Time
Civil Twilight
Nautical Twilight
Astronomical Twilight
Moon
Length of Visible Light
Length of Day
Tomorrow will be .
, % of the Moon is Illuminated

Today's Extremes

State Highs State Lows

Community

WunderPhotos

Upload Photos

1,942,908 photos uploaded!

WunderBlog® & News

Nearby

Air Quality

  Air Quality AQ Index Pollutant
Not available.

Snow Depth

Station Depth Elevation

Earthquake Activity

City Distance Mag. Time & Date
Minimum magnitude displayed is 2.5.

Coastal Water Temperatures

Place Temperature

Stations

Nearby Weather Stations

Station Location Temp. Windchill Dew Point Humidity Wind Precip. Elev Updated Type
                   

Watches & Warnings

There are currently no watches in effect.